sensor_id;sensor_type;location;lat;lon;timestamp;P1;durP1;ratioP1;P2;durP2;ratioP2
65174;SDS011;51761;42.126;24.752;2023-04-03T00:01:25;3.33;;;1.30;;
65174;SDS011;51761;42.126;24.752;2023-04-03T00:03:51;3.33;;;0.98;;
65174;SDS011;51761;42.126;24.752;2023-04-03T00:06:16;2.50;;;1.52;;
65174;SDS011;51761;42.126;24.752;2023-04-03T00:08:42;2.67;;;1.10;;
65174;SDS011;51761;42.126;24.752;2023-04-03T00:11:08;3.80;;;1.30;;
65174;SDS011;51761;42.126;24.752;2023-04-03T00:13:34;2.50;;;1.40;;
65174;SDS011;51761;42.126;24.752;2023-04-03T00:15:59;1.90;;;1.17;;
65174;SDS011;51761;42.126;24.752;2023-04-03T00:18:25;2.25;;;1.40;;
65174;SDS011;51761;42.126;24.752;2023-04-03T00:20:50;3.80;;;1.58;;
65174;SDS011;51761;42.126;24.752;2023-04-03T00:23:16;2.72;;;1.58;;
65174;SDS011;51761;42.126;24.752;2023-04-03T00:25:41;3.17;;;1.40;;
65174;SDS011;51761;42.126;24.752;2023-04-03T00:28:08;3.83;;;1.90;;
65174;SDS011;51761;42.126;24.752;2023-04-03T00:30:34;5.10;;;1.42;;
65174;SDS011;51761;42.126;24.752;2023-04-03T00:33:00;4.90;;;1.60;;
65174;SDS011;51761;42.126;24.752;2023-04-03T00:35:25;5.18;;;1.60;;
65174;SDS011;51761;42.126;24.752;2023-04-03T00:37:52;2.47;;;1.55;;
65174;SDS011;51761;42.126;24.752;2023-04-03T00:40:19;4.65;;;2.08;;
65174;SDS011;51761;42.126;24.752;2023-04-03T00:42:46;3.00;;;1.70;;
65174;SDS011;51761;42.126;24.752;2023-04-03T00:48:00;5.80;;;1.63;;
65174;SDS011;51761;42.126;24.752;2023-04-03T00:50:30;4.63;;;1.60;;
65174;SDS011;51761;42.126;24.752;2023-04-03T00:52:59;6.93;;;1.95;;
65174;SDS011;51761;42.126;24.752;2023-04-03T00:55:25;3.15;;;1.95;;
65174;SDS011;51761;42.126;24.752;2023-04-03T00:57:51;5.97;;;2.15;;
65174;SDS011;51761;42.126;24.752;2023-04-03T01:00:18;8.88;;;2.60;;
65174;SDS011;51761;42.126;24.752;2023-04-03T01:02:45;7.43;;;2.33;;
65174;SDS011;51761;42.126;24.752;2023-04-03T01:05:10;6.55;;;1.98;;
65174;SDS011;51761;42.126;24.752;2023-04-03T01:07:37;3.35;;;1.98;;
65174;SDS011;51761;42.126;24.752;2023-04-03T01:10:08;7.72;;;2.90;;
65174;SDS011;51761;42.126;24.752;2023-04-03T01:12:39;5.20;;;1.60;;
65174;SDS011;51761;42.126;24.752;2023-04-03T01:15:11;13.90;;;3.25;;
65174;SDS011;51761;42.126;24.752;2023-04-03T01:17:46;3.05;;;1.48;;
65174;SDS011;51761;42.126;24.752;2023-04-03T01:25:23;4.25;;;1.60;;
65174;SDS011;51761;42.126;24.752;2023-04-03T01:27:49;3.47;;;1.40;;
65174;SDS011;51761;42.126;24.752;2023-04-03T01:30:16;2.60;;;1.52;;
65174;SDS011;51761;42.126;24.752;2023-04-03T01:32:43;6.05;;;1.95;;
65174;SDS011;51761;42.126;24.752;2023-04-03T01:35:09;3.83;;;1.95;;
65174;SDS011;51761;42.126;24.752;2023-04-03T01:37:35;3.78;;;1.50;;
65174;SDS011;51761;42.126;24.752;2023-04-03T01:40:01;5.55;;;1.88;;
65174;SDS011;51761;42.126;24.752;2023-04-03T01:42:27;4.22;;;1.98;;
65174;SDS011;51761;42.126;24.752;2023-04-03T01:44:53;5.45;;;2.05;;
65174;SDS011;51761;42.126;24.752;2023-04-03T01:47:18;7.18;;;2.53;;
65174;SDS011;51761;42.126;24.752;2023-04-03T01:49:44;7.45;;;2.42;;
65174;SDS011;51761;42.126;24.752;2023-04-03T01:52:10;5.85;;;2.85;;
65174;SDS011;51761;42.126;24.752;2023-04-03T01:54:36;7.63;;;2.13;;
65174;SDS011;51761;42.126;24.752;2023-04-03T01:57:01;5.57;;;2.25;;
65174;SDS011;51761;42.126;24.752;2023-04-03T01:59:27;4.28;;;1.98;;
65174;SDS011;51761;42.126;24.752;2023-04-03T02:01:53;6.55;;;1.73;;
65174;SDS011;51761;42.126;24.752;2023-04-03T02:04:18;6.53;;;1.98;;
65174;SDS011;51761;42.126;24.752;2023-04-03T02:06:44;2.97;;;1.60;;
65174;SDS011;51761;42.126;24.752;2023-04-03T02:09:10;4.25;;;1.98;;
65174;SDS011;51761;42.126;24.752;2023-04-03T02:11:36;5.93;;;1.90;;
65174;SDS011;51761;42.126;24.752;2023-04-03T02:14:01;7.57;;;1.92;;
65174;SDS011;51761;42.126;24.752;2023-04-03T02:16:27;5.35;;;2.03;;
65174;SDS011;51761;42.126;24.752;2023-04-03T02:18:53;4.43;;;2.17;;
65174;SDS011;51761;42.126;24.752;2023-04-03T02:21:19;8.07;;;2.47;;
65174;SDS011;51761;42.126;24.752;2023-04-03T02:23:45;4.60;;;2.55;;
65174;SDS011;51761;42.126;24.752;2023-04-03T02:26:11;7.85;;;2.60;;
65174;SDS011;51761;42.126;24.752;2023-04-03T02:28:38;6.68;;;2.45;;
65174;SDS011;51761;42.126;24.752;2023-04-03T02:31:07;5.78;;;3.08;;
65174;SDS011;51761;42.126;24.752;2023-04-03T02:33:34;7.00;;;2.78;;
65174;SDS011;51761;42.126;24.752;2023-04-03T02:36:02;9.07;;;3.33;;
65174;SDS011;51761;42.126;24.752;2023-04-03T02:38:28;10.63;;;3.72;;
65174;SDS011;51761;42.126;24.752;2023-04-03T02:40:59;8.18;;;3.03;;
65174;SDS011;51761;42.126;24.752;2023-04-03T02:43:25;12.00;;;3.78;;
65174;SDS011;51761;42.126;24.752;2023-04-03T02:45:51;16.90;;;2.85;;
65174;SDS011;51761;42.126;24.752;2023-04-03T02:48:16;8.55;;;3.10;;
65174;SDS011;51761;42.126;24.752;2023-04-03T02:50:42;16.40;;;3.22;;
65174;SDS011;51761;42.126;24.752;2023-04-03T02:53:07;7.65;;;2.90;;
65174;SDS011;51761;42.126;24.752;2023-04-03T02:55:33;15.90;;;3.67;;
65174;SDS011;51761;42.126;24.752;2023-04-03T02:57:58;12.88;;;4.35;;
65174;SDS011;51761;42.126;24.752;2023-04-03T03:00:24;24.38;;;8.02;;
65174;SDS011;51761;42.126;24.752;2023-04-03T03:02:49;17.08;;;4.47;;
65174;SDS011;51761;42.126;24.752;2023-04-03T03:05:15;18.60;;;4.78;;
65174;SDS011;51761;42.126;24.752;2023-04-03T03:07:40;16.48;;;4.75;;
65174;SDS011;51761;42.126;24.752;2023-04-03T03:10:06;17.20;;;4.15;;
65174;SDS011;51761;42.126;24.752;2023-04-03T03:12:32;10.90;;;5.95;;
65174;SDS011;51761;42.126;24.752;2023-04-03T03:14:57;18.88;;;5.80;;
65174;SDS011;51761;42.126;24.752;2023-04-03T03:17:23;17.30;;;4.88;;
65174;SDS011;51761;42.126;24.752;2023-04-03T03:19:48;13.25;;;4.20;;
65174;SDS011;51761;42.126;24.752;2023-04-03T03:22:14;21.98;;;4.82;;
65174;SDS011;51761;42.126;24.752;2023-04-03T03:24:39;17.10;;;4.53;;
65174;SDS011;51761;42.126;24.752;2023-04-03T03:27:05;12.02;;;4.57;;
65174;SDS011;51761;42.126;24.752;2023-04-03T03:29:30;17.45;;;4.43;;
65174;SDS011;51761;42.126;24.752;2023-04-03T03:31:56;18.67;;;4.57;;
65174;SDS011;51761;42.126;24.752;2023-04-03T03:34:21;14.95;;;4.78;;
65174;SDS011;51761;42.126;24.752;2023-04-03T03:36:47;14.05;;;5.18;;
65174;SDS011;51761;42.126;24.752;2023-04-03T03:39:12;17.40;;;5.28;;
65174;SDS011;51761;42.126;24.752;2023-04-03T03:41:38;15.70;;;6.10;;
65174;SDS011;51761;42.126;24.752;2023-04-03T03:44:03;24.48;;;5.13;;
65174;SDS011;51761;42.126;24.752;2023-04-03T03:46:29;19.80;;;5.97;;
65174;SDS011;51761;42.126;24.752;2023-04-03T03:48:55;18.55;;;6.10;;
65174;SDS011;51761;42.126;24.752;2023-04-03T03:51:20;25.80;;;7.70;;
65174;SDS011;51761;42.126;24.752;2023-04-03T03:53:46;23.73;;;6.82;;
65174;SDS011;51761;42.126;24.752;2023-04-03T03:56:11;29.92;;;6.90;;
65174;SDS011;51761;42.126;24.752;2023-04-03T03:58:36;27.52;;;6.18;;
65174;SDS011;51761;42.126;24.752;2023-04-03T04:01:05;23.02;;;6.38;;
65174;SDS011;51761;42.126;24.752;2023-04-03T04:03:31;22.65;;;6.80;;
65174;SDS011;51761;42.126;24.752;2023-04-03T04:05:57;23.48;;;6.95;;
65174;SDS011;51761;42.126;24.752;2023-04-03T04:08:24;28.85;;;6.25;;
65174;SDS011;51761;42.126;24.752;2023-04-03T04:10:49;10.65;;;4.97;;
65174;SDS011;51761;42.126;24.752;2023-04-03T04:13:15;17.50;;;8.23;;
65174;SDS011;51761;42.126;24.752;2023-04-03T04:15:41;38.80;;;12.30;;
65174;SDS011;51761;42.126;24.752;2023-04-03T04:18:07;17.25;;;7.20;;
65174;SDS011;51761;42.126;24.752;2023-04-03T04:20:33;16.92;;;6.72;;
65174;SDS011;51761;42.126;24.752;2023-04-03T04:22:58;19.02;;;6.38;;
65174;SDS011;51761;42.126;24.752;2023-04-03T04:25:24;15.23;;;6.57;;
65174;SDS011;51761;42.126;24.752;2023-04-03T04:27:49;22.10;;;6.22;;
65174;SDS011;51761;42.126;24.752;2023-04-03T04:30:15;15.05;;;6.40;;
65174;SDS011;51761;42.126;24.752;2023-04-03T04:32:40;22.65;;;6.90;;
65174;SDS011;51761;42.126;24.752;2023-04-03T04:35:06;28.70;;;8.07;;
65174;SDS011;51761;42.126;24.752;2023-04-03T04:37:32;51.78;;;9.75;;
65174;SDS011;51761;42.126;24.752;2023-04-03T04:39:57;32.88;;;9.05;;
65174;SDS011;51761;42.126;24.752;2023-04-03T04:42:23;140.27;;;54.33;;
65174;SDS011;51761;42.126;24.752;2023-04-03T04:44:49;112.97;;;38.03;;
65174;SDS011;51761;42.126;24.752;2023-04-03T04:47:15;44.33;;;8.80;;
65174;SDS011;51761;42.126;24.752;2023-04-03T04:49:40;41.13;;;9.82;;
65174;SDS011;51761;42.126;24.752;2023-04-03T04:52:06;37.90;;;9.10;;
65174;SDS011;51761;42.126;24.752;2023-04-03T04:54:31;34.55;;;9.82;;
65174;SDS011;51761;42.126;24.752;2023-04-03T04:56:57;45.42;;;7.68;;
65174;SDS011;51761;42.126;24.752;2023-04-03T04:59:23;37.05;;;8.32;;
65174;SDS011;51761;42.126;24.752;2023-04-03T05:01:49;30.83;;;9.13;;
65174;SDS011;51761;42.126;24.752;2023-04-03T05:04:14;34.85;;;7.82;;
65174;SDS011;51761;42.126;24.752;2023-04-03T05:06:40;91.65;;;33.25;;
65174;SDS011;51761;42.126;24.752;2023-04-03T05:09:05;37.05;;;7.55;;
65174;SDS011;51761;42.126;24.752;2023-04-03T05:11:31;35.78;;;8.35;;
65174;SDS011;51761;42.126;24.752;2023-04-03T05:13:57;29.42;;;7.22;;
65174;SDS011;51761;42.126;24.752;2023-04-03T05:16:22;27.67;;;7.15;;
65174;SDS011;51761;42.126;24.752;2023-04-03T05:18:48;21.13;;;7.43;;
65174;SDS011;51761;42.126;24.752;2023-04-03T05:21:13;22.75;;;6.72;;
65174;SDS011;51761;42.126;24.752;2023-04-03T05:23:39;24.60;;;7.25;;
65174;SDS011;51761;42.126;24.752;2023-04-03T05:26:05;20.48;;;7.35;;
65174;SDS011;51761;42.126;24.752;2023-04-03T05:28:31;24.98;;;7.13;;
65174;SDS011;51761;42.126;24.752;2023-04-03T05:30:57;21.45;;;7.13;;
65174;SDS011;51761;42.126;24.752;2023-04-03T05:33:23;59.97;;;24.58;;
65174;SDS011;51761;42.126;24.752;2023-04-03T05:35:51;20.70;;;8.50;;
65174;SDS011;51761;42.126;24.752;2023-04-03T05:38:16;19.55;;;7.30;;
65174;SDS011;51761;42.126;24.752;2023-04-03T05:40:42;23.20;;;8.52;;
65174;SDS011;51761;42.126;24.752;2023-04-03T05:43:07;27.17;;;7.97;;
65174;SDS011;51761;42.126;24.752;2023-04-03T05:45:33;28.48;;;9.07;;
65174;SDS011;51761;42.126;24.752;2023-04-03T05:47:58;30.05;;;8.25;;
65174;SDS011;51761;42.126;24.752;2023-04-03T05:50:24;34.03;;;8.75;;
65174;SDS011;51761;42.126;24.752;2023-04-03T05:52:50;31.83;;;12.05;;
65174;SDS011;51761;42.126;24.752;2023-04-03T05:55:18;42.38;;;13.80;;
65174;SDS011;51761;42.126;24.752;2023-04-03T05:57:43;35.95;;;13.93;;
65174;SDS011;51761;42.126;24.752;2023-04-03T06:00:12;36.72;;;14.50;;
65174;SDS011;51761;42.126;24.752;2023-04-03T06:02:40;46.40;;;12.73;;
65174;SDS011;51761;42.126;24.752;2023-04-03T06:05:07;27.60;;;11.15;;
65174;SDS011;51761;42.126;24.752;2023-04-03T06:07:33;29.88;;;13.23;;
65174;SDS011;51761;42.126;24.752;2023-04-03T06:09:59;32.17;;;10.05;;
65174;SDS011;51761;42.126;24.752;2023-04-03T06:12:25;22.60;;;9.85;;
65174;SDS011;51761;42.126;24.752;2023-04-03T06:14:51;28.27;;;9.18;;
65174;SDS011;51761;42.126;24.752;2023-04-03T06:17:17;18.67;;;7.63;;
65174;SDS011;51761;42.126;24.752;2023-04-03T06:19:43;26.30;;;9.43;;
65174;SDS011;51761;42.126;24.752;2023-04-03T06:22:09;13.82;;;6.20;;
65174;SDS011;51761;42.126;24.752;2023-04-03T06:24:36;23.92;;;6.38;;
65174;SDS011;51761;42.126;24.752;2023-04-03T06:27:02;18.35;;;5.32;;
65174;SDS011;51761;42.126;24.752;2023-04-03T06:29:28;14.27;;;5.38;;
65174;SDS011;51761;42.126;24.752;2023-04-03T06:31:53;20.75;;;4.80;;
65174;SDS011;51761;42.126;24.752;2023-04-03T06:34:19;10.50;;;4.72;;
65174;SDS011;51761;42.126;24.752;2023-04-03T06:36:45;9.38;;;4.32;;
65174;SDS011;51761;42.126;24.752;2023-04-03T06:39:17;14.70;;;4.25;;
65174;SDS011;51761;42.126;24.752;2023-04-03T06:41:48;10.40;;;3.92;;
65174;SDS011;51761;42.126;24.752;2023-04-03T06:44:13;14.20;;;3.67;;
65174;SDS011;51761;42.126;24.752;2023-04-03T06:46:41;11.38;;;4.55;;
65174;SDS011;51761;42.126;24.752;2023-04-03T06:49:07;13.07;;;4.35;;
65174;SDS011;51761;42.126;24.752;2023-04-03T06:51:33;12.93;;;4.40;;
65174;SDS011;51761;42.126;24.752;2023-04-03T06:53:59;12.07;;;4.53;;
65174;SDS011;51761;42.126;24.752;2023-04-03T06:56:26;10.27;;;3.67;;
65174;SDS011;51761;42.126;24.752;2023-04-03T06:58:53;8.18;;;3.80;;
65174;SDS011;51761;42.126;24.752;2023-04-03T07:01:22;19.08;;;4.75;;
65174;SDS011;51761;42.126;24.752;2023-04-03T07:03:48;12.90;;;5.03;;
65174;SDS011;51761;42.126;24.752;2023-04-03T07:06:14;15.45;;;5.80;;
65174;SDS011;51761;42.126;24.752;2023-04-03T07:08:41;15.13;;;5.05;;
65174;SDS011;51761;42.126;24.752;2023-04-03T07:11:08;10.25;;;4.88;;
65174;SDS011;51761;42.126;24.752;2023-04-03T07:13:35;9.52;;;4.07;;
65174;SDS011;51761;42.126;24.752;2023-04-03T07:16:01;10.85;;;4.82;;
65174;SDS011;51761;42.126;24.752;2023-04-03T07:18:30;11.07;;;3.83;;
65174;SDS011;51761;42.126;24.752;2023-04-03T07:20:57;14.40;;;4.05;;
65174;SDS011;51761;42.126;24.752;2023-04-03T07:23:23;11.40;;;3.70;;
65174;SDS011;51761;42.126;24.752;2023-04-03T07:25:49;11.15;;;4.57;;
65174;SDS011;51761;42.126;24.752;2023-04-03T07:28:16;10.38;;;4.38;;
65174;SDS011;51761;42.126;24.752;2023-04-03T07:30:48;12.90;;;3.75;;
65174;SDS011;51761;42.126;24.752;2023-04-03T07:33:16;9.52;;;4.35;;
65174;SDS011;51761;42.126;24.752;2023-04-03T07:35:43;12.57;;;3.72;;
65174;SDS011;51761;42.126;24.752;2023-04-03T07:38:09;7.75;;;4.03;;
65174;SDS011;51761;42.126;24.752;2023-04-03T07:40:36;16.25;;;5.47;;
65174;SDS011;51761;42.126;24.752;2023-04-03T07:43:02;8.65;;;3.85;;
65174;SDS011;51761;42.126;24.752;2023-04-03T07:45:28;8.18;;;3.72;;
65174;SDS011;51761;42.126;24.752;2023-04-03T07:47:54;7.78;;;3.63;;
65174;SDS011;51761;42.126;24.752;2023-04-03T07:50:21;12.32;;;3.75;;
65174;SDS011;51761;42.126;24.752;2023-04-03T07:52:47;9.32;;;2.95;;
65174;SDS011;51761;42.126;24.752;2023-04-03T07:55:13;12.70;;;4.18;;
65174;SDS011;51761;42.126;24.752;2023-04-03T07:57:38;11.15;;;3.22;;
65174;SDS011;51761;42.126;24.752;2023-04-03T08:00:05;6.60;;;3.10;;
65174;SDS011;51761;42.126;24.752;2023-04-03T08:02:31;11.77;;;3.83;;
65174;SDS011;51761;42.126;24.752;2023-04-03T08:04:57;9.40;;;3.72;;
65174;SDS011;51761;42.126;24.752;2023-04-03T08:07:23;7.20;;;3.65;;
65174;SDS011;51761;42.126;24.752;2023-04-03T08:09:50;18.38;;;4.22;;
65174;SDS011;51761;42.126;24.752;2023-04-03T08:12:16;5.45;;;2.90;;
65174;SDS011;51761;42.126;24.752;2023-04-03T08:14:42;8.15;;;3.67;;
65174;SDS011;51761;42.126;24.752;2023-04-03T08:17:08;10.27;;;4.07;;
65174;SDS011;51761;42.126;24.752;2023-04-03T08:19:36;13.43;;;4.10;;
65174;SDS011;51761;42.126;24.752;2023-04-03T08:22:03;12.40;;;4.65;;
65174;SDS011;51761;42.126;24.752;2023-04-03T08:24:30;11.20;;;4.63;;
65174;SDS011;51761;42.126;24.752;2023-04-03T08:26:56;12.35;;;4.28;;
65174;SDS011;51761;42.126;24.752;2023-04-03T08:29:22;13.02;;;5.72;;
65174;SDS011;51761;42.126;24.752;2023-04-03T08:31:48;17.80;;;6.85;;
65174;SDS011;51761;42.126;24.752;2023-04-03T08:34:15;14.13;;;6.38;;
65174;SDS011;51761;42.126;24.752;2023-04-03T08:36:41;19.35;;;5.53;;
65174;SDS011;51761;42.126;24.752;2023-04-03T08:39:07;15.15;;;5.35;;
65174;SDS011;51761;42.126;24.752;2023-04-03T08:41:36;14.15;;;5.38;;
65174;SDS011;51761;42.126;24.752;2023-04-03T08:44:14;15.38;;;4.95;;
65174;SDS011;51761;42.126;24.752;2023-04-03T08:46:52;15.30;;;4.35;;
65174;SDS011;51761;42.126;24.752;2023-04-03T08:50:19;14.73;;;4.60;;
65174;SDS011;51761;42.126;24.752;2023-04-03T08:52:40;7.30;;;3.80;;
65174;SDS011;51761;42.126;24.752;2023-04-03T08:57:49;14.55;;;4.35;;
65174;SDS011;51761;42.126;24.752;2023-04-03T09:00:48;7.85;;;3.40;;
65174;SDS011;51761;42.126;24.752;2023-04-03T09:03:19;11.27;;;3.72;;
65174;SDS011;51761;42.126;24.752;2023-04-03T09:06:28;13.82;;;4.07;;
65174;SDS011;51761;42.126;24.752;2023-04-03T09:17:16;15.25;;;4.22;;
65174;SDS011;51761;42.126;24.752;2023-04-03T09:19:52;9.20;;;3.25;;
65174;SDS011;51761;42.126;24.752;2023-04-03T09:22:25;8.88;;;3.72;;
65174;SDS011;51761;42.126;24.752;2023-04-03T09:25:00;5.53;;;3.35;;
65174;SDS011;51761;42.126;24.752;2023-04-03T09:27:31;7.50;;;3.20;;
65174;SDS011;51761;42.126;24.752;2023-04-03T09:29:56;11.48;;;3.00;;
65174;SDS011;51761;42.126;24.752;2023-04-03T09:32:29;8.32;;;2.85;;
65174;SDS011;51761;42.126;24.752;2023-04-03T09:37:45;9.75;;;3.35;;
65174;SDS011;51761;42.126;24.752;2023-04-03T09:42:51;17.00;;;4.05;;
65174;SDS011;51761;42.126;24.752;2023-04-03T09:45:35;11.93;;;3.90;;
65174;SDS011;51761;42.126;24.752;2023-04-03T09:50:52;6.53;;;2.80;;
65174;SDS011;51761;42.126;24.752;2023-04-03T09:55:54;9.07;;;2.90;;
65174;SDS011;51761;42.126;24.752;2023-04-03T09:58:25;8.25;;;3.08;;
65174;SDS011;51761;42.126;24.752;2023-04-03T10:01:02;7.05;;;2.70;;
65174;SDS011;51761;42.126;24.752;2023-04-03T10:03:32;4.97;;;2.40;;
65174;SDS011;51761;42.126;24.752;2023-04-03T10:06:00;33.17;;;8.88;;
65174;SDS011;51761;42.126;24.752;2023-04-03T10:08:28;10.65;;;3.50;;
65174;SDS011;51761;42.126;24.752;2023-04-03T10:11:16;10.35;;;3.85;;
65174;SDS011;51761;42.126;24.752;2023-04-03T10:13:50;20.73;;;3.30;;
65174;SDS011;51761;42.126;24.752;2023-04-03T10:16:17;10.23;;;3.17;;
65174;SDS011;51761;42.126;24.752;2023-04-03T10:18:49;7.80;;;3.65;;
65174;SDS011;51761;42.126;24.752;2023-04-03T10:21:43;11.47;;;3.23;;
65174;SDS011;51761;42.126;24.752;2023-04-03T10:24:15;8.10;;;3.47;;
65174;SDS011;51761;42.126;24.752;2023-04-03T10:26:52;6.80;;;3.60;;
65174;SDS011;51761;42.126;24.752;2023-04-03T10:34:47;8.63;;;3.85;;
65174;SDS011;51761;42.126;24.752;2023-04-03T10:37:29;8.43;;;3.83;;
65174;SDS011;51761;42.126;24.752;2023-04-03T10:40:04;14.10;;;4.40;;
65174;SDS011;51761;42.126;24.752;2023-04-03T10:42:50;13.38;;;3.78;;
65174;SDS011;51761;42.126;24.752;2023-04-03T10:45:51;7.35;;;3.92;;
65174;SDS011;51761;42.126;24.752;2023-04-03T10:48:35;8.98;;;4.00;;
65174;SDS011;51761;42.126;24.752;2023-04-03T10:53:49;9.20;;;3.72;;
65174;SDS011;51761;42.126;24.752;2023-04-03T10:56:50;8.40;;;3.80;;
65174;SDS011;51761;42.126;24.752;2023-04-03T11:04:40;11.93;;;4.18;;
65174;SDS011;51761;42.126;24.752;2023-04-03T11:07:12;8.65;;;3.10;;
65174;SDS011;51761;42.126;24.752;2023-04-03T11:09:44;7.65;;;3.08;;
65174;SDS011;51761;42.126;24.752;2023-04-03T11:12:33;11.85;;;4.30;;
65174;SDS011;51761;42.126;24.752;2023-04-03T11:15:05;8.02;;;3.80;;
65174;SDS011;51761;42.126;24.752;2023-04-03T11:17:43;5.28;;;2.92;;
65174;SDS011;51761;42.126;24.752;2023-04-03T11:20:19;5.65;;;3.60;;
65174;SDS011;51761;42.126;24.752;2023-04-03T11:25:25;4.78;;;2.83;;
65174;SDS011;51761;42.126;24.752;2023-04-03T11:27:57;8.00;;;3.70;;
65174;SDS011;51761;42.126;24.752;2023-04-03T11:30:39;6.63;;;3.78;;
65174;SDS011;51761;42.126;24.752;2023-04-03T11:35:59;6.03;;;3.10;;
65174;SDS011;51761;42.126;24.752;2023-04-03T11:38:41;4.72;;;3.33;;
65174;SDS011;51761;42.126;24.752;2023-04-03T11:41:10;7.97;;;3.58;;
65174;SDS011;51761;42.126;24.752;2023-04-03T11:43:42;7.93;;;4.00;;
65174;SDS011;51761;42.126;24.752;2023-04-03T11:46:22;8.27;;;3.67;;
65174;SDS011;51761;42.126;24.752;2023-04-03T11:48:51;7.32;;;3.58;;
65174;SDS011;51761;42.126;24.752;2023-04-03T11:53:53;7.57;;;3.42;;
65174;SDS011;51761;42.126;24.752;2023-04-03T12:01:43;6.93;;;3.55;;
65174;SDS011;51761;42.126;24.752;2023-04-03T12:04:12;7.50;;;4.25;;
65174;SDS011;51761;42.126;24.752;2023-04-03T12:11:52;12.60;;;5.22;;
65174;SDS011;51761;42.126;24.752;2023-04-03T12:14:21;15.38;;;5.60;;
65174;SDS011;51761;42.126;24.752;2023-04-03T12:16:50;14.85;;;6.25;;
65174;SDS011;51761;42.126;24.752;2023-04-03T12:29:47;12.65;;;5.68;;
65174;SDS011;51761;42.126;24.752;2023-04-03T12:37:43;17.00;;;6.85;;
65174;SDS011;51761;42.126;24.752;2023-04-03T12:40:26;14.50;;;7.32;;
65174;SDS011;51761;42.126;24.752;2023-04-03T12:46:14;16.10;;;7.20;;
65174;SDS011;51761;42.126;24.752;2023-04-03T12:48:50;14.93;;;6.22;;
65174;SDS011;51761;42.126;24.752;2023-04-03T12:53:51;11.65;;;7.45;;
65174;SDS011;51761;42.126;24.752;2023-04-03T12:56:25;14.65;;;7.35;;
65174;SDS011;51761;42.126;24.752;2023-04-03T12:58:56;17.25;;;7.70;;
65174;SDS011;51761;42.126;24.752;2023-04-03T13:01:41;14.20;;;7.45;;
65174;SDS011;51761;42.126;24.752;2023-04-03T13:04:07;10.48;;;6.13;;
65174;SDS011;51761;42.126;24.752;2023-04-03T13:06:38;19.98;;;7.32;;
65174;SDS011;51761;42.126;24.752;2023-04-03T13:09:06;18.23;;;7.47;;
65174;SDS011;51761;42.126;24.752;2023-04-03T13:11:46;16.65;;;7.15;;
65174;SDS011;51761;42.126;24.752;2023-04-03T13:14:16;16.75;;;7.13;;
65174;SDS011;51761;42.126;24.752;2023-04-03T13:17:06;17.63;;;9.05;;
65174;SDS011;51761;42.126;24.752;2023-04-03T13:19:40;20.83;;;7.65;;
65174;SDS011;51761;42.126;24.752;2023-04-03T13:22:08;17.27;;;8.43;;
65174;SDS011;51761;42.126;24.752;2023-04-03T13:24:48;18.48;;;9.05;;
65174;SDS011;51761;42.126;24.752;2023-04-03T13:27:16;23.30;;;10.52;;
65174;SDS011;51761;42.126;24.752;2023-04-03T13:29:42;28.38;;;10.63;;
65174;SDS011;51761;42.126;24.752;2023-04-03T13:32:13;19.27;;;10.38;;
65174;SDS011;51761;42.126;24.752;2023-04-03T13:34:48;21.75;;;9.80;;
65174;SDS011;51761;42.126;24.752;2023-04-03T13:37:25;30.73;;;11.43;;
65174;SDS011;51761;42.126;24.752;2023-04-03T13:39:59;31.48;;;12.52;;
65174;SDS011;51761;42.126;24.752;2023-04-03T13:42:37;22.73;;;13.68;;
65174;SDS011;51761;42.126;24.752;2023-04-03T13:45:09;34.65;;;14.73;;
65174;SDS011;51761;42.126;24.752;2023-04-03T13:47:49;29.52;;;16.02;;
65174;SDS011;51761;42.126;24.752;2023-04-03T13:50:24;24.48;;;14.82;;
65174;SDS011;51761;42.126;24.752;2023-04-03T13:52:55;27.70;;;13.00;;
65174;SDS011;51761;42.126;24.752;2023-04-03T13:55:32;20.35;;;12.18;;
65174;SDS011;51761;42.126;24.752;2023-04-03T13:58:20;25.33;;;13.27;;
65174;SDS011;51761;42.126;24.752;2023-04-03T14:00:53;25.10;;;12.88;;
65174;SDS011;51761;42.126;24.752;2023-04-03T14:03:27;25.30;;;14.00;;
65174;SDS011;51761;42.126;24.752;2023-04-03T14:06:04;27.83;;;15.27;;
65174;SDS011;51761;42.126;24.752;2023-04-03T14:08:31;28.90;;;15.15;;
65174;SDS011;51761;42.126;24.752;2023-04-03T14:10:57;29.25;;;15.02;;
65174;SDS011;51761;42.126;24.752;2023-04-03T14:13:22;29.92;;;15.93;;
65174;SDS011;51761;42.126;24.752;2023-04-03T14:15:48;28.98;;;15.95;;
65174;SDS011;51761;42.126;24.752;2023-04-03T14:18:16;32.03;;;16.95;;
65174;SDS011;51761;42.126;24.752;2023-04-03T14:20:44;26.73;;;16.55;;
65174;SDS011;51761;42.126;24.752;2023-04-03T14:23:10;34.85;;;18.80;;
65174;SDS011;51761;42.126;24.752;2023-04-03T14:25:36;37.00;;;18.70;;
65174;SDS011;51761;42.126;24.752;2023-04-03T14:28:06;44.45;;;20.02;;
65174;SDS011;51761;42.126;24.752;2023-04-03T14:30:40;38.28;;;18.02;;
65174;SDS011;51761;42.126;24.752;2023-04-03T14:33:06;33.15;;;18.55;;
65174;SDS011;51761;42.126;24.752;2023-04-03T14:35:32;33.50;;;17.65;;
65174;SDS011;51761;42.126;24.752;2023-04-03T14:37:57;32.72;;;19.15;;
65174;SDS011;51761;42.126;24.752;2023-04-03T14:40:24;23.92;;;15.07;;
65174;SDS011;51761;42.126;24.752;2023-04-03T14:42:51;29.48;;;16.58;;
65174;SDS011;51761;42.126;24.752;2023-04-03T14:45:20;27.10;;;14.30;;
65174;SDS011;51761;42.126;24.752;2023-04-03T14:47:53;28.25;;;14.00;;
65174;SDS011;51761;42.126;24.752;2023-04-03T14:50:24;27.83;;;14.80;;
65174;SDS011;51761;42.126;24.752;2023-04-03T14:52:52;25.50;;;15.55;;
65174;SDS011;51761;42.126;24.752;2023-04-03T14:55:20;23.23;;;13.57;;
65174;SDS011;51761;42.126;24.752;2023-04-03T14:57:47;23.38;;;14.55;;
65174;SDS011;51761;42.126;24.752;2023-04-03T15:00:16;21.75;;;14.02;;
65174;SDS011;51761;42.126;24.752;2023-04-03T15:02:44;27.50;;;14.88;;
65174;SDS011;51761;42.126;24.752;2023-04-03T15:05:11;26.98;;;14.38;;
65174;SDS011;51761;42.126;24.752;2023-04-03T15:07:38;24.90;;;13.35;;
65174;SDS011;51761;42.126;24.752;2023-04-03T15:12:40;25.73;;;15.10;;
65174;SDS011;51761;42.126;24.752;2023-04-03T15:15:06;28.42;;;15.88;;
65174;SDS011;51761;42.126;24.752;2023-04-03T15:17:32;30.27;;;16.75;;
65174;SDS011;51761;42.126;24.752;2023-04-03T15:21:01;28.08;;;15.48;;
65174;SDS011;51761;42.126;24.752;2023-04-03T15:24:25;30.10;;;16.58;;
65174;SDS011;51761;42.126;24.752;2023-04-03T15:27:50;30.10;;;15.77;;
65174;SDS011;51761;42.126;24.752;2023-04-03T15:31:14;26.48;;;14.57;;
65174;SDS011;51761;42.126;24.752;2023-04-03T15:34:38;26.88;;;13.77;;
65174;SDS011;51761;42.126;24.752;2023-04-03T15:38:02;23.73;;;14.15;;
65174;SDS011;51761;42.126;24.752;2023-04-03T15:41:27;32.63;;;15.10;;
65174;SDS011;51761;42.126;24.752;2023-04-03T15:44:51;32.88;;;15.48;;
65174;SDS011;51761;42.126;24.752;2023-04-03T15:48:16;23.98;;;13.10;;
65174;SDS011;51761;42.126;24.752;2023-04-03T15:51:41;21.88;;;13.43;;
65174;SDS011;51761;42.126;24.752;2023-04-03T15:55:05;23.77;;;11.85;;
65174;SDS011;51761;42.126;24.752;2023-04-03T15:58:29;19.98;;;10.52;;
65174;SDS011;51761;42.126;24.752;2023-04-03T16:00:55;34.95;;;11.98;;
65174;SDS011;51761;42.126;24.752;2023-04-03T16:03:21;24.27;;;9.23;;
65174;SDS011;51761;42.126;24.752;2023-04-03T16:05:49;22.65;;;8.80;;
65174;SDS011;51761;42.126;24.752;2023-04-03T16:08:15;21.10;;;7.30;;
65174;SDS011;51761;42.126;24.752;2023-04-03T16:10:42;15.52;;;7.32;;